createdAt,value
2019-03-24T00:01:17.510Z,94.45
2019-03-24T00:06:23.186Z,91.30
2019-03-24T00:11:29.488Z,90.67
2019-03-24T00:16:36.550Z,106.03
2019-03-24T00:21:42.324Z,117.30
2019-03-24T00:26:47.998Z,118.53
2019-03-24T00:31:53.695Z,112.20
2019-03-24T00:37:00.564Z,107.22
2019-03-24T00:42:06.732Z,96.53
2019-03-24T00:47:12.842Z,95.70
2019-03-24T00:52:19.367Z,101.50
2019-03-24T00:57:24.965Z,91.10
2019-03-24T01:02:31.290Z,90.80
2019-03-24T01:07:37.585Z,93.25
2019-03-24T01:12:43.724Z,87.40
2019-03-24T01:17:49.423Z,91.17
2019-03-24T01:22:55.312Z,94.55
2019-03-24T01:28:00.994Z,93.77
2019-03-24T01:33:06.786Z,90.47
2019-03-24T01:38:12.466Z,97.67
2019-03-24T01:43:18.580Z,110.72
2019-03-24T01:48:24.504Z,106.58
2019-03-24T01:53:30.371Z,114.52
2019-03-24T01:58:37.561Z,109.07
2019-03-24T02:03:44.398Z,118.55
2019-03-24T02:08:50.449Z,116.82
2019-03-24T02:13:56.417Z,125.50
2019-03-24T02:19:03.005Z,121.72
2019-03-24T02:24:09.123Z,128.83
2019-03-24T02:29:14.821Z,134.80
2019-03-24T02:34:20.968Z,119.82
2019-03-24T02:39:26.724Z,120.42
2019-03-24T02:44:32.536Z,129.93
2019-03-24T02:49:38.695Z,131.82
2019-03-24T02:54:44.686Z,128.05
2019-03-24T02:59:50.800Z,116.75
2019-03-24T03:04:56.583Z,119.75
2019-03-24T03:10:03.199Z,115.88
2019-03-24T03:15:11.166Z,109.70
2019-03-24T03:20:17.402Z,109.97
2019-03-24T03:25:23.348Z,90.85
2019-03-24T03:30:29.051Z,78.90
2019-03-24T03:35:34.923Z,81.92
2019-03-24T03:40:40.714Z,64.40
2019-03-24T03:45:46.646Z,59.00
2019-03-24T03:50:52.404Z,53.90
2019-03-24T03:55:58.099Z,53.73
2019-03-24T04:01:05.000Z,51.73
2019-03-24T04:06:10.691Z,44.97
2019-03-24T04:11:16.386Z,41.53
2019-03-24T04:16:22.445Z,38.53
2019-03-24T04:21:28.555Z,37.33
2019-03-24T04:26:34.352Z,35.45
2019-03-24T04:31:40.478Z,38.47
2019-03-24T04:36:46.267Z,34.73
2019-03-24T04:41:52.723Z,30.25
2019-03-24T04:46:59.464Z,38.73
2019-03-24T04:52:05.372Z,34.13
2019-03-24T04:57:11.254Z,38.13
2019-03-24T05:02:17.418Z,33.42
2019-03-24T05:07:23.893Z,37.75
2019-03-24T05:12:29.986Z,36.43
2019-03-24T05:17:37.162Z,39.73
2019-03-24T05:22:43.238Z,37.60
2019-03-24T05:27:49.132Z,45.67
2019-03-24T05:32:55.342Z,41.83
2019-03-24T05:38:01.031Z,41.90
2019-03-24T05:43:06.846Z,35.53
2019-03-24T05:48:12.740Z,34.97
2019-03-24T05:53:18.525Z,38.53
2019-03-24T05:58:24.619Z,41.73
2019-03-24T06:03:30.542Z,37.73
2019-03-24T06:08:37.164Z,40.63
2019-03-24T06:13:44.193Z,47.53
2019-03-24T06:18:50.090Z,44.33
2019-03-24T06:23:55.784Z,36.87
2019-03-24T06:29:01.898Z,40.07
2019-03-24T06:34:08.062Z,38.48
2019-03-24T06:39:14.247Z,36.73
2019-03-24T06:44:20.024Z,41.43
2019-03-24T06:49:25.918Z,39.27
2019-03-24T06:54:31.622Z,42.20
2019-03-24T06:59:38.295Z,40.50
2019-03-24T07:04:44.154Z,39.20
2019-03-24T07:09:52.589Z,41.63
2019-03-24T07:14:58.892Z,44.35
2019-03-24T07:20:05.484Z,48.00
2019-03-24T07:25:11.629Z,50.73
2019-03-24T07:30:17.725Z,49.73
2019-03-24T07:35:23.778Z,54.00
2019-03-24T07:40:29.612Z,45.57
2019-03-24T07:45:35.493Z,53.55
2019-03-24T07:50:41.732Z,51.03
2019-03-24T07:55:48.072Z,48.87
2019-03-24T08:00:54.234Z,50.63
2019-03-24T08:06:00.015Z,55.10
2019-03-24T08:11:08.543Z,62.53
2019-03-24T08:16:14.353Z,65.80
2019-03-24T08:21:20.604Z,59.67
2019-03-24T08:26:26.479Z,61.53
2019-03-24T08:31:32.837Z,63.33
2019-03-24T08:36:39.360Z,67.57
2019-03-24T08:41:45.118Z,69.23
2019-03-24T08:46:51.013Z,71.82
2019-03-24T08:51:56.799Z,69.87
2019-03-24T08:57:02.623Z,74.82
2019-03-24T09:02:08.859Z,72.72
2019-03-24T09:07:15.311Z,69.30
2019-03-24T09:12:21.214Z,76.50
2019-03-24T09:17:27.034Z,72.47
2019-03-24T09:22:32.862Z,66.07
2019-03-24T09:27:38.647Z,74.42
2019-03-24T09:32:44.605Z,69.50
2019-03-24T09:37:50.774Z,60.13
2019-03-24T09:42:56.884Z,70.17
2019-03-24T09:48:02.996Z,63.90
2019-03-24T09:53:08.794Z,63.95
2019-03-24T09:58:14.571Z,66.92
2019-03-24T10:03:20.362Z,67.37
2019-03-24T10:08:27.262Z,61.35
2019-03-24T10:13:33.139Z,53.25
2019-03-24T10:18:38.921Z,50.45
2019-03-24T10:23:44.697Z,48.98
2019-03-24T10:28:50.489Z,49.00
2019-03-24T10:33:56.574Z,50.43
2019-03-24T10:39:05.351Z,54.63
2019-03-24T10:44:11.140Z,54.63
2019-03-24T10:49:24.817Z,52.08
2019-03-24T10:54:25.969Z,44.10
2019-03-24T10:59:31.790Z,51.80
2019-03-24T11:04:37.846Z,49.77
2019-03-24T11:09:45.190Z,45.63
2019-03-24T11:14:51.641Z,46.58
2019-03-24T11:19:58.475Z,47.30
2019-03-24T11:25:05.006Z,47.08
2019-03-24T11:30:12.671Z,47.85
2019-03-24T11:35:18.491Z,45.08
2019-03-24T11:40:24.485Z,49.27
2019-03-24T11:45:30.458Z,50.20
2019-03-24T11:50:36.362Z,54.05
2019-03-24T11:55:42.503Z,43.85
2019-03-24T12:00:49.103Z,43.83
2019-03-24T12:05:54.985Z,42.88
2019-03-24T12:11:00.838Z,42.80
2019-03-24T12:16:07.913Z,46.37
2019-03-24T12:21:13.804Z,44.33
2019-03-24T12:26:19.590Z,41.30
2019-03-24T12:31:25.468Z,44.63
2019-03-24T12:36:31.638Z,49.53
2019-03-24T12:41:37.435Z,52.13
2019-03-24T12:46:43.211Z,57.38
2019-03-24T12:51:49.982Z,55.05
2019-03-24T12:56:55.780Z,49.50
2019-03-24T13:02:02.410Z,61.83
2019-03-24T13:07:09.608Z,61.37
2019-03-24T13:12:15.393Z,63.95
2019-03-24T13:17:21.537Z,63.33
2019-03-24T13:22:27.650Z,59.48
2019-03-24T13:27:33.815Z,58.87
2019-03-24T13:32:40.867Z,51.60
2019-03-24T13:37:46.649Z,62.35
2019-03-24T13:42:52.877Z,56.20
2019-03-24T13:47:58.783Z,56.90
2019-03-24T13:53:04.962Z,63.20
2019-03-24T13:58:12.253Z,70.03
2019-03-24T14:03:18.139Z,68.85
2019-03-24T14:08:24.325Z,59.30
2019-03-24T14:13:30.117Z,62.25
2019-03-24T14:18:36.395Z,57.58
2019-03-24T14:23:42.515Z,56.33
2019-03-24T14:28:49.118Z,57.80
2019-03-24T14:33:55.321Z,49.00
2019-03-24T14:39:01.117Z,49.73
2019-03-24T14:44:08.582Z,49.30
2019-03-24T14:49:14.375Z,54.48
2019-03-24T14:54:20.486Z,56.63
2019-03-24T14:59:26.558Z,48.07
2019-03-24T15:04:32.442Z,46.68
2019-03-24T15:09:38.332Z,43.92
2019-03-24T15:14:44.128Z,41.98
2019-03-24T15:19:50.251Z,47.25
2019-03-24T15:24:56.263Z,43.92
2019-03-24T15:30:02.417Z,42.45
2019-03-24T15:35:09.622Z,43.17
2019-03-24T15:40:15.534Z,42.55
2019-03-24T15:45:21.742Z,41.68
2019-03-24T15:50:27.764Z,42.10
2019-03-24T15:55:33.458Z,39.80
2019-03-24T16:00:44.304Z,50.43
2019-03-24T16:05:50.189Z,44.98
2019-03-24T16:10:55.997Z,46.08
2019-03-24T16:16:02.884Z,43.23
2019-03-24T16:21:08.951Z,44.13
2019-03-24T16:26:14.746Z,42.55
2019-03-24T16:31:20.599Z,40.28
2019-03-24T16:36:26.524Z,41.20
2019-03-24T16:41:32.309Z,50.00
2019-03-24T16:46:38.103Z,42.67
2019-03-24T16:51:43.912Z,49.45
2019-03-24T16:56:49.944Z,45.63
2019-03-24T17:01:56.376Z,42.07
2019-03-24T17:07:02.144Z,42.00
2019-03-24T17:12:08.261Z,43.35
2019-03-24T17:17:17.119Z,43.35
2019-03-24T17:22:23.675Z,44.77
2019-03-24T17:27:29.869Z,50.78
2019-03-24T17:32:35.654Z,48.73
2019-03-24T17:37:41.813Z,43.43
2019-03-24T17:42:47.719Z,48.83
2019-03-24T17:47:53.436Z,42.77
2019-03-24T17:52:59.130Z,48.10
2019-03-24T17:58:04.978Z,48.35
2019-03-24T18:03:10.668Z,48.03
2019-03-24T18:08:16.457Z,47.65
2019-03-24T18:13:22.506Z,47.60
2019-03-24T18:18:28.274Z,48.93
2019-03-24T18:23:34.397Z,51.92
2019-03-24T18:28:40.113Z,44.70
2019-03-24T18:33:45.740Z,50.53
2019-03-24T18:38:52.678Z,70.47
2019-03-24T18:43:59.097Z,51.97
2019-03-24T18:49:06.034Z,50.05
2019-03-24T18:54:12.537Z,53.03
2019-03-24T18:59:18.602Z,51.60
2019-03-24T19:04:24.406Z,50.50
2019-03-24T19:09:30.105Z,47.13
2019-03-24T19:14:36.231Z,58.75
2019-03-24T19:19:43.391Z,59.37
2019-03-24T19:24:49.088Z,65.03
2019-03-24T19:29:55.177Z,57.77
2019-03-24T19:35:02.087Z,54.87
2019-03-24T19:40:13.705Z,68.07
2019-03-24T19:45:19.577Z,63.93
2019-03-24T19:50:26.765Z,59.33
2019-03-24T19:55:34.661Z,61.63
2019-03-24T20:00:40.812Z,60.10
2019-03-24T20:05:46.521Z,54.83
2019-03-24T20:10:52.631Z,56.47
2019-03-24T20:15:58.554Z,60.57
2019-03-24T20:21:04.731Z,57.50
2019-03-24T20:26:10.734Z,53.90
2019-03-24T20:31:16.898Z,61.33
2019-03-24T20:36:22.757Z,65.53
2019-03-24T20:41:29.385Z,71.23
2019-03-24T20:46:35.849Z,92.50
2019-03-24T20:51:41.699Z,90.80
2019-03-24T20:56:47.706Z,90.43
2019-03-24T21:01:53.411Z,81.33
2019-03-24T21:06:59.115Z,95.00
2019-03-24T21:12:04.985Z,79.63
2019-03-24T21:17:11.049Z,83.80
2019-03-24T21:22:16.820Z,65.63
2019-03-24T21:27:22.903Z,63.73
2019-03-24T21:32:28.775Z,72.13
2019-03-24T21:37:34.517Z,59.97
2019-03-24T21:42:40.346Z,68.60
2019-03-24T21:47:46.739Z,66.03
2019-03-24T21:52:52.481Z,62.40
2019-03-24T21:57:59.601Z,68.43
2019-03-24T22:03:06.492Z,68.30
2019-03-24T22:08:12.959Z,73.37
2019-03-24T22:13:18.650Z,80.43
2019-03-24T22:18:24.791Z,72.60
2019-03-24T22:23:30.554Z,89.03
2019-03-24T22:28:36.339Z,97.27
2019-03-24T22:33:42.093Z,80.70
2019-03-24T22:38:47.892Z,94.00
2019-03-24T22:43:53.613Z,96.27
2019-03-24T22:48:59.318Z,102.03
2019-03-24T22:54:06.101Z,80.10
2019-03-24T22:59:11.807Z,79.47
2019-03-24T23:04:18.165Z,92.03
2019-03-24T23:09:23.864Z,80.37
2019-03-24T23:14:29.558Z,80.77
2019-03-24T23:19:35.256Z,74.23
2019-03-24T23:24:41.286Z,66.10
2019-03-24T23:29:47.070Z,61.63
2019-03-24T23:34:52.948Z,53.60
2019-03-24T23:39:59.341Z,55.20
2019-03-24T23:45:05.368Z,54.87
2019-03-24T23:50:12.419Z,54.80
2019-03-24T23:55:18.119Z,52.37
